Kezdőlap
METAR-TAF:

METAR-TAF

Repülőterek :

Antananarivo, Madagaszkár

földrajzi szélesség: 18-48S, földrajzi hosszúság: 047-29E, magasság: 1279 m

Jelenlegi meteorológiai megfigyelések

A jelentés 35 perccel ezelõtt készült, 12:30 UTC
Keleti szél 9 kt, kelet-északkeleti és délkeleti között változik
Hőmérséklet 21°C
Páratartalom 46%
Légköri nyomás 1025 hPa
Látótávolság 10 km, vagy több
Kevés felhő 2300 lábon

METAR: FMMI 201230Z 10009KT 060V140 9999 FEW023 21/09 Q1025 NOSIG

Idő: 16:05 (13:05 UTC)

Előrejelzés

A jelentés 2 órával és 5 perccel ezelõtt készült, 11:00 UTC
Az előrejelzés 20-én 12 óra UTC és 21-én 18 óra UTC között érvényes
Kelet-délkeleti szél 8 kt
Látótávolság 10 km, vagy több
Szórványos felhőzet 2300 lábon
Valószínűség 30%
21-én 02 óra UTC és 21-én 05 óra UTC között
Látótávolság: 4000 m
Párásság,

TAF: FMMI 201100Z 2012/2118 12008KT 9999 SCT023 PROB30 2102/2105 4000 BR

Meteorológiai megfigyelések és előrejelzések több, mint 4000 repülőtéren (METAR és TAF jelentéseket).

A térképen piros és sárga pontok jelzik az elérhető meteorológiai állomásokat.

Mozgassa az egeret a pont fölött, hogy megjelenjen az állomás neve.

Azután kattintson az időjárási megfigyelések és előrejelzések megtekintéséhez.

A térkép megváltoztatása: kattintson a fekete keresztel jelölt zöld gombra ráközelítéshez, a vonallal jelölt zöld gombra távolításhoz, vagy a zöld nyilakra a szomszédos térképek eléréséhez.


METAR-TAF: